createdAt,value
2023-04-03T00:00:27.542Z,94980.72
2023-04-03T00:03:13.585Z,94988.78
2023-04-03T00:05:59.764Z,94979.06
2023-04-03T00:08:45.717Z,94986.72
2023-04-03T00:11:31.731Z,94978.88
2023-04-03T00:14:17.710Z,94981.94
2023-04-03T00:17:03.782Z,94978.69
2023-04-03T00:19:49.533Z,94976.41
2023-04-03T00:22:35.981Z,94981.75
2023-04-03T00:25:22.497Z,94977.63
2023-04-03T00:28:08.312Z,94972.50
2023-04-03T00:30:54.394Z,94961.34
2023-04-03T00:33:40.333Z,94966.34
2023-04-03T00:36:26.297Z,94973.34
2023-04-03T00:39:12.337Z,94975.38
2023-04-03T00:41:58.248Z,94988.16
2023-04-03T00:44:47.029Z,94985.91
2023-04-03T00:47:33.395Z,94992.31
2023-04-03T00:50:20.438Z,94986.31
2023-04-03T00:53:07.736Z,94993.97
2023-04-03T00:55:56.243Z,94989.22
2023-04-03T00:58:50.364Z,94982.22
2023-04-03T01:01:36.805Z,94983.22
2023-04-03T01:04:34.042Z,94990.66
2023-04-03T01:07:25.524Z,94964.53
2023-04-03T01:10:15.608Z,94977.47
2023-04-03T01:13:02.411Z,94974.16
2023-04-03T01:15:48.629Z,94967.38
2023-04-03T01:18:37.852Z,94974.38
2023-04-03T01:21:43.657Z,94965.72
2023-04-03T01:24:37.213Z,94971.72
2023-04-03T01:27:25.561Z,94960.97
2023-04-03T01:30:12.141Z,94966.34
2023-04-03T01:32:58.269Z,94964.47
2023-04-03T01:35:44.561Z,94969.25
2023-04-03T01:38:30.439Z,94960.81
2023-04-03T01:41:17.021Z,94971.72
2023-04-03T01:44:05.271Z,94969.22
2023-04-03T01:46:51.291Z,94920.41
2023-04-03T01:49:37.264Z,94974.84
2023-04-03T01:52:23.609Z,94964.63
2023-04-03T01:55:11.055Z,94955.13
2023-04-03T01:57:58.943Z,94966.56
2023-04-03T02:00:44.915Z,94953.91
2023-04-03T02:03:30.870Z,94950.84
2023-04-03T02:06:16.632Z,94946.56
2023-04-03T02:09:02.651Z,94943.66
2023-04-03T02:11:50.045Z,94944.91
2023-04-03T02:14:36.024Z,94950.47
2023-04-03T02:17:21.955Z,94944.88
2023-04-03T02:20:08.522Z,94934.63
2023-04-03T02:22:54.680Z,94936.41
2023-04-03T02:25:40.437Z,94932.94
2023-04-03T02:28:26.225Z,94932.56
2023-04-03T02:31:12.345Z,94941.59
2023-04-03T02:34:00.663Z,94938.28
2023-04-03T02:36:46.902Z,94917.72
2023-04-03T02:39:33.947Z,94937.09
2023-04-03T02:42:20.470Z,94926.78
2023-04-03T02:45:07.120Z,94923.50
2023-04-03T02:47:53.337Z,94933.94
2023-04-03T02:50:39.178Z,94941.38
2023-04-03T02:53:25.435Z,94932.72
2023-04-03T02:56:12.210Z,94916.03
2023-04-03T02:58:58.096Z,94926.53
2023-04-03T03:01:44.500Z,94930.03
2023-04-03T03:04:31.051Z,94927.53
2023-04-03T03:07:17.020Z,94915.78
2023-04-03T03:10:02.924Z,94924.22
2023-04-03T03:12:48.879Z,94925.25
2023-04-03T03:15:34.631Z,94922.78
2023-04-03T03:18:22.538Z,94913.91
2023-04-03T03:21:10.855Z,94910.22
2023-04-03T03:23:56.791Z,94901.53
2023-04-03T03:26:42.929Z,94911.84
2023-04-03T03:29:29.181Z,94904.66
2023-04-03T03:32:15.011Z,94913.50
2023-04-03T03:35:01.181Z,94904.59
2023-04-03T03:37:47.395Z,94906.03
2023-04-03T03:40:33.727Z,94901.72
2023-04-03T03:43:19.924Z,94894.13
2023-04-03T03:46:06.780Z,94905.81
2023-04-03T03:48:52.784Z,94897.75
2023-04-03T03:51:39.556Z,94909.25
2023-04-03T03:54:26.359Z,94889.25
2023-04-03T03:57:12.224Z,94899.16
2023-04-03T03:59:58.138Z,94911.88
2023-04-03T04:02:45.116Z,94897.03
2023-04-03T04:05:35.040Z,94906.72
2023-04-03T04:08:21.271Z,94917.41
2023-04-03T04:11:08.247Z,94921.72
2023-04-03T04:13:54.075Z,94922.59
2023-04-03T04:16:44.727Z,94934.56
2023-04-03T04:19:36.827Z,94924.19
2023-04-03T04:22:24.077Z,94921.09
2023-04-03T04:25:10.964Z,94919.47
2023-04-03T04:27:57.961Z,94922.78
2023-04-03T04:30:44.769Z,94916.38
2023-04-03T04:33:31.728Z,94936.13
2023-04-03T04:36:20.021Z,94934.47
2023-04-03T04:39:07.148Z,94942.88
2023-04-03T04:41:53.404Z,94919.38
2023-04-03T04:44:39.782Z,94957.84
2023-04-03T04:47:25.767Z,94955.56
2023-04-03T04:50:12.580Z,94955.31
2023-04-03T04:52:58.988Z,94951.41
2023-04-03T04:55:44.911Z,94953.25
2023-04-03T04:58:31.016Z,94954.28
2023-04-03T05:01:19.740Z,94962.34
2023-04-03T05:04:16.200Z,94965.03
2023-04-03T05:07:03.575Z,94955.34
2023-04-03T05:09:51.467Z,94967.28
2023-04-03T05:12:37.978Z,94964.03
2023-04-03T05:15:24.937Z,94958.25
2023-04-03T05:18:10.983Z,94957.88
2023-04-03T05:20:57.239Z,94950.44
2023-04-03T05:23:45.316Z,94963.91
2023-04-03T05:26:31.769Z,94968.22
2023-04-03T05:29:18.432Z,94968.84
2023-04-03T05:32:05.849Z,94963.09
2023-04-03T05:34:52.805Z,94971.56
2023-04-03T05:37:39.187Z,94973.91
2023-04-03T05:40:25.019Z,94964.44
2023-04-03T05:43:13.931Z,94978.47
2023-04-03T05:46:01.817Z,94973.09
2023-04-03T05:48:48.930Z,94981.78
2023-04-03T05:51:39.785Z,94967.44
2023-04-03T05:54:37.561Z,94969.31
2023-04-03T05:57:30.291Z,94975.84
2023-04-03T06:00:16.784Z,94961.59
2023-04-03T06:03:09.261Z,94962.03
2023-04-03T06:05:55.405Z,94947.25
2023-04-03T06:08:41.413Z,94931.88
2023-04-03T06:11:27.717Z,94898.75
2023-04-03T06:14:14.052Z,94885.00
2023-04-03T06:17:00.679Z,94871.84
2023-04-03T06:19:47.004Z,94884.19
2023-04-03T06:22:33.621Z,94880.69
2023-04-03T06:25:21.168Z,94879.03
2023-04-03T06:28:10.295Z,94865.25
2023-04-03T06:30:56.391Z,94851.84
2023-04-03T06:33:42.323Z,94850.59
2023-04-03T06:36:28.184Z,94823.81
2023-04-03T10:02:25.388Z,94813.53
2023-04-03T10:05:27.005Z,94800.88
2023-04-03T10:08:12.730Z,94811.19
2023-04-03T10:11:12.417Z,94806.25
2023-04-03T10:14:04.122Z,94800.81
2023-04-03T10:17:15.662Z,94794.81
2023-04-03T10:20:10.962Z,94803.69
2023-04-03T10:23:24.185Z,94814.31
2023-04-03T10:26:16.359Z,94799.22
2023-04-03T10:29:29.574Z,94809.66
2023-04-03T10:32:28.241Z,94803.78
2023-04-03T10:35:26.809Z,94806.75
2023-04-03T10:38:25.911Z,94782.50
2023-04-03T10:41:51.478Z,94800.53
2023-04-03T10:44:53.582Z,94815.59
2023-04-03T10:48:28.356Z,94806.69
2023-04-03T10:51:20.976Z,94786.50
2023-04-03T10:54:12.620Z,94779.81
2023-04-03T10:57:11.563Z,94801.09
2023-04-03T11:00:03.111Z,94791.53
2023-04-03T11:02:56.672Z,94778.25
2023-04-03T11:05:48.441Z,94787.66
2023-04-03T11:08:47.822Z,94759.81
2023-04-03T11:11:36.781Z,94759.00
2023-04-03T11:14:28.333Z,94769.19
2023-04-03T11:17:20.478Z,94754.91
2023-04-03T11:20:36.289Z,94768.25
2023-04-03T11:23:35.682Z,94762.09
2023-04-03T11:26:32.041Z,94754.63
2023-04-03T11:29:35.024Z,94752.47
2023-04-03T11:32:31.477Z,94726.44
2023-04-03T11:35:18.410Z,94740.56
2023-04-03T11:38:07.492Z,94724.41
2023-04-03T11:40:55.327Z,94725.47
2023-04-03T11:44:04.849Z,94743.25
2023-04-03T11:46:57.965Z,94733.69
2023-04-03T11:50:02.280Z,94717.22
2023-04-03T11:52:51.165Z,94719.97
2023-04-03T11:55:49.011Z,94713.94
2023-04-03T11:58:36.232Z,94696.09
2023-04-03T12:01:46.860Z,94691.91
2023-04-03T12:04:33.342Z,94715.25
2023-04-03T12:07:20.939Z,94714.63
2023-04-03T12:10:28.656Z,94702.44
2023-04-03T12:13:18.767Z,94680.41
2023-04-03T12:16:06.146Z,94674.34
2023-04-03T12:18:55.234Z,94663.84
2023-04-03T12:21:49.934Z,94668.41
2023-04-03T12:24:40.681Z,94669.75
2023-04-03T12:27:27.911Z,94702.19
2023-04-03T12:30:29.066Z,94706.34
2023-04-03T12:33:28.910Z,94679.06
2023-04-03T12:36:20.147Z,94673.50
2023-04-03T12:39:17.031Z,94674.88
2023-04-03T12:42:39.159Z,94683.38
2023-04-03T12:45:26.679Z,94682.16
2023-04-03T12:48:18.542Z,94651.91
2023-04-03T12:51:05.070Z,94644.44
2023-04-03T12:53:52.938Z,94671.53
2023-04-03T12:56:38.916Z,94652.72
2023-04-03T12:59:27.310Z,94664.44
2023-04-03T13:02:31.081Z,94644.03
2023-04-03T13:05:19.804Z,94648.41
2023-04-03T13:08:16.077Z,94653.84
2023-04-03T13:11:09.522Z,94668.38
2023-04-03T13:14:00.333Z,94631.31
2023-04-03T13:16:59.962Z,94639.16
2023-04-03T13:19:49.450Z,94645.81
2023-04-03T13:22:44.733Z,94628.63
2023-04-03T13:25:33.802Z,94628.78
2023-04-03T13:28:24.862Z,94637.34
2023-04-03T13:31:15.259Z,94644.44
2023-04-03T13:34:08.180Z,94610.72
2023-04-03T13:37:01.020Z,94615.34
2023-04-03T13:40:17.388Z,94639.97
2023-04-03T13:43:18.783Z,94603.66
2023-04-03T13:46:11.163Z,94619.63
2023-04-03T13:48:57.912Z,94652.75
2023-04-03T13:51:45.157Z,94626.03
2023-04-03T13:54:41.472Z,94612.25
2023-04-03T13:57:27.729Z,94618.75
2023-04-03T14:00:51.551Z,94614.69
2023-04-03T14:03:43.697Z,94585.06
2023-04-03T14:06:30.394Z,94580.72
2023-04-03T14:09:18.199Z,94595.38
2023-04-03T14:12:11.368Z,94599.09
2023-04-03T14:15:19.367Z,94596.00
2023-04-03T14:18:06.733Z,94596.72
2023-04-03T14:20:53.919Z,94588.84
2023-04-03T14:23:39.861Z,94583.59
2023-04-03T14:26:27.595Z,94584.78
2023-04-03T14:29:14.440Z,94592.41
2023-04-03T14:32:13.693Z,94581.88
2023-04-03T14:35:01.623Z,94573.88
2023-04-03T14:37:48.578Z,94571.03
2023-04-03T14:40:35.138Z,94575.19
2023-04-03T14:43:21.981Z,94612.28
2023-04-03T14:46:18.164Z,94646.00
2023-04-03T14:49:10.623Z,94622.34
2023-04-03T14:51:58.191Z,94630.03
2023-04-03T14:54:44.093Z,94627.19
2023-04-03T14:57:31.559Z,94636.59
2023-04-03T15:00:22.394Z,94609.84
2023-04-03T15:03:15.209Z,94626.13
2023-04-03T15:06:01.116Z,94615.88
2023-04-03T15:08:48.166Z,94608.25
2023-04-03T15:11:34.717Z,94605.56
2023-04-03T15:14:35.202Z,94624.53
2023-04-03T15:17:23.306Z,94627.66
2023-04-03T15:20:14.932Z,94619.00
2023-04-03T15:23:02.614Z,94607.91
2023-04-03T15:25:49.887Z,94618.59
2023-04-03T15:28:38.591Z,94609.34
2023-04-03T15:31:24.548Z,94588.19
2023-04-03T15:34:10.340Z,94577.28
